Time;durP1;ratioP1;P1;durP2;ratioP2;P2;SDS_P1;SDS_P2;PMS_P1;PMS_P2;Temp;Humidity;BMP_temperature;BMP_pressure;BME280_temperature;BME280_humidity;BME280_pressure;Samples;Min_cycle;Max_cycle;Signal;HPM_P1;HPM_P2
2022/07/16 00:01:31;;;;;;;;;;;;;;;;;;352644;28;1015;-63
2022/07/16 00:01:41;;;;;;;;;;;;;;;;;;352802;28;955;-63
2022/07/16 00:01:51;;;;;;;;;;;;;;;;;;352766;28;794;-63
2022/07/16 00:02:01;;;;;;;;;;;;;;;;;;352761;28;1018;-63
2022/07/16 00:02:11;;;;;;;;;;;;;;;;;;352797;28;955;-63
2022/07/16 00:02:22;;;;;;;;;;;;;;;;;;352765;28;897;-63
2022/07/16 00:02:32;;;;;;;;;;;;;;;;;;352792;28;876;-63
2022/07/16 00:02:42;;;;;;;;;;;;;;;;;;352705;28;967;-63
2022/07/16 00:02:52;;;;;;;;;;;;;;;;;;351984;28;1279;-63
2022/07/16 00:03:03;;;;;;;;;;;;;;;;;;350914;28;1301;-63
2022/07/16 00:03:13;;;;;;;;;;;;;;;;;;351328;28;1051;-64
2022/07/16 00:03:23;;;;;;;;;;;;;;;;;;351352;28;963;-63
2022/07/16 00:03:33;;;;;;;;;;;;;;;;;;351241;28;992;-64
2022/07/16 00:03:44;;;;;;;;;;;;;;;;;;351385;28;956;-63
2022/07/16 00:03:55;;;;;;;;;;;;;;;;;;351374;28;1142;-63
2022/07/16 00:04:05;;;;;;;;;;;;;;;;;;351322;28;1408;-63
2022/07/16 00:04:16;;;;;;;;;;;;;;;;;;351355;28;1139;-63
2022/07/16 00:04:26;;;;;;;;;;;;;;;;;;351393;28;852;-63
2022/07/16 00:04:37;;;;;;;;;;;;;;;;;;351367;28;998;-63
2022/07/16 00:04:47;;;;;;;;;;;;;;;;;;351377;28;773;-63
2022/07/16 00:04:57;;;;;;;;;;;;;;;;;;351337;28;936;-63
2022/07/16 00:05:08;;;;;;;;;;;;;;;;;;351290;28;973;-63
2022/07/16 00:05:18;;;;;;;;;;;;;;;;;;351376;28;861;-63
2022/07/16 00:05:28;;;;;;;;;;;;;;;;;;351358;28;948;-63
2022/07/16 00:05:38;;;;;;;;;;;;;;;;;;351368;28;956;-63
2022/07/16 00:05:49;;;;;;;;;;;;;;;;;;351353;28;944;-63
2022/07/16 00:05:59;;;;;;;;;;;;;;;;;;351303;28;887;-63
2022/07/16 00:06:09;;;;;;;;;;;;;;;;;;351396;28;908;-63
2022/07/16 00:06:19;;;;;;;;;;;;;;;;;;351365;27;960;-63
2022/07/16 00:06:29;;;;;;;;;;;;;;;;;;351401;28;1031;-63
2022/07/16 00:06:41;;;;;;;;;;;;;;;;;;351400;28;828;-63
2022/07/16 00:06:51;;;;;;;;;;;;;;;;;;351355;28;979;-63
2022/07/16 00:07:01;;;;;;;;;;;;;;;;;;351358;28;790;-63
2022/07/16 00:07:11;;;;;;;;;;;;;;;;;;351403;28;920;-63
2022/07/16 00:07:22;;;;;;;;;;;;;;;;;;350500;27;1445;-63
2022/07/16 00:07:32;;;;;;;;;;;;;;;;;;349904;28;1452;-63
2022/07/16 00:07:42;;;;;;;;;;;;;;;;;;351046;28;1642;-63
2022/07/16 00:07:54;;;;;;;;;;;;;;;;;;351366;28;967;-63
2022/07/16 00:08:04;;;;;;;;;;;;;;;;;;351326;28;956;-63
2022/07/16 00:08:14;;;;;;;;;;;;;;;;;;351336;28;971;-63
2022/07/16 00:08:25;;;;;;;;;;;;;;;;;;351404;28;766;-63
2022/07/16 00:08:35;;;;;;;;;;;;;;;;;;351347;28;782;-63
2022/07/16 00:08:45;;;;;;;;;;;;;;;;;;351388;28;971;-63
2022/07/16 00:08:55;;;;;;;;;;;;;;;;;;351364;28;801;-63
2022/07/16 00:09:05;;;;;;;;;;;;;;;;;;351334;28;979;-63
2022/07/16 00:09:16;;;;;;;;;;;;;;;;;;351380;28;912;-63
2022/07/16 00:09:26;;;;;;;;;;;;;;;;;;351323;28;975;-64
2022/07/16 00:09:36;;;;;;;;;;;;;;;;;;351385;28;845;-63
2022/07/16 00:09:46;;;;;;;;;;;;;;;;;;351287;28;1066;-63
2022/07/16 00:09:58;;;;;;;;;;;;;;;;;;351379;28;853;-63
2022/07/16 00:10:08;;;;;;;;;;;;;;;;;;351355;28;873;-63
2022/07/16 00:10:18;;;;;;;;;;;;;;;;;;351385;28;873;-63
2022/07/16 00:10:28;;;;;;;;;;;;;;;;;;351402;28;920;-63
2022/07/16 00:10:39;;;;;;;;;;;;;;;;;;351379;28;856;-63
2022/07/16 00:10:49;;;;;;;;;;;;;;;;;;351293;28;1967;-63
2022/07/16 00:10:59;;;;;;;;;;;;;;;;;;351369;28;1003;-63
2022/07/16 00:11:09;;;;;;;;;;;;;;;;;;351275;28;940;-63
2022/07/16 00:11:21;;;;;;;;;;;;;;;;;;351367;28;912;-63
2022/07/16 00:11:31;;;;;;;;;;;;;;;;;;351396;28;924;-63
2022/07/16 00:11:41;;;;;;;;;;;;;;;;;;351363;28;1239;-63
2022/07/16 00:11:51;;;;;;;;;;;;;;;;;;351323;28;932;-63
2022/07/16 00:12:01;;;;;;;;;;;;;;;;;;351318;28;924;-63
2022/07/16 00:12:12;;;;;;;;;;;;;;;;;;351269;28;1127;-63
2022/07/16 00:12:22;;;;;;;;;;;;;;;;;;351380;28;924;-63
2022/07/16 00:12:32;;;;;;;;;;;;;;;;;;351350;28;991;-63
2022/07/16 00:12:42;;;;;;;;;;;;;;;;;;351356;28;1066;-63
2022/07/16 00:12:53;;;;;;;;;;;;;;;;;;351365;28;853;-64
2022/07/16 00:13:03;;;;;;;;;;;;;;;;;;351406;28;967;-63
2022/07/16 00:13:13;;;;;;;;;;;;;;;;;;351318;28;916;-63
2022/07/16 00:13:23;;;;;;;;;;;;;;;;;;351406;28;790;-63
2022/07/16 00:13:33;;;;;;;;;;;;;;;;;;350596;28;2014;-63
2022/07/16 00:13:44;;;;;;;;;;;;;;;;;;351876;28;1656;-64
2022/07/16 00:13:55;;;;;;;;;;;;;;;;;;352785;28;889;-63
2022/07/16 00:14:05;;;;;;;;;;;;;;;;;;352768;28;920;-63
2022/07/16 00:14:15;;;;;;;;;;;;;;;;;;352766;28;947;-63
2022/07/16 00:14:25;;;;;;;;;;;;;;;;;;352732;28;768;-63
2022/07/16 00:14:36;;;;;;;;;;;;;;;;;;352719;28;857;-63
2022/07/16 00:14:46;;;;;;;;;;;;;;;;;;352748;28;1027;-63
2022/07/16 00:14:56;;;;;;;;;;;;;;;;;;352713;28;1050;-63
2022/07/16 00:15:07;;;;;;;;;;;;;;;;;;352801;28;860;-63
2022/07/16 00:15:17;;;;;;;;;;;;;;;;;;352752;28;916;-63
2022/07/16 00:15:27;;;;;;;;;;;;;;;;;;352717;28;857;-63
2022/07/16 00:15:38;;;;;;;;;;;;;;;;;;352825;28;773;-63
2022/07/16 00:15:48;;;;;;;;;;;;;;;;;;352778;28;900;-63
2022/07/16 00:15:58;;;;;;;;;;;;;;;;;;352719;28;959;-63
2022/07/16 00:16:08;;;;;;;;;;;;;;;;;;352731;28;990;-63
2022/07/16 00:16:19;;;;;;;;;;;;;;;;;;352749;28;915;-64
2022/07/16 00:16:29;;;;;;;;;;;;;;;;;;352704;28;1019;-63
2022/07/16 00:16:39;;;;;;;;;;;;;;;;;;352730;28;983;-63
2022/07/16 00:16:49;;;;;;;;;;;;;;;;;;352761;28;852;-63
2022/07/16 00:16:59;;;;;;;;;;;;;;;;;;352788;28;1030;-63
2022/07/16 00:17:10;;;;;;;;;;;;;;;;;;352747;28;920;-63
2022/07/16 00:17:20;;;;;;;;;;;;;;;;;;352744;28;964;-63
2022/07/16 00:17:30;;;;;;;;;;;;;;;;;;352741;28;837;-63
2022/07/16 00:17:40;;;;;;;;;;;;;;;;;;351105;28;1494;-63
2022/07/16 00:19:15;;;;;;;;;;;;;;;;;;350608;28;979;-63
2022/07/16 00:19:23;;;;;;;;;;;;;;;;;;349848;28;940;-63
2022/07/16 00:19:33;;;;;;;;;;;;;;;;;;349938;28;1058;-63
2022/07/16 00:19:44;;;;;;;;;;;;;;;;;;349900;28;904;-64
2022/07/16 00:19:54;;;;;;;;;;;;;;;;;;349952;28;865;-63
2022/07/16 00:20:05;;;;;;;;;;;;;;;;;;349954;28;853;-63
2022/07/16 00:20:15;;;;;;;;;;;;;;;;;;349899;28;968;-63
2022/07/16 00:20:25;;;;;;;;;;;;;;;;;;349919;28;936;-63
2022/07/16 00:20:35;;;;;;;;;;;;;;;;;;349948;28;925;-63
2022/07/16 00:20:46;;;;;;;;;;;;;;;;;;349995;28;826;-63
2022/07/16 00:20:56;;;;;;;;;;;;;;;;;;349973;28;946;-63
2022/07/16 00:21:06;;;;;;;;;;;;;;;;;;349985;28;766;-63
2022/07/16 00:21:16;;;;;;;;;;;;;;;;;;349951;28;975;-63
2022/07/16 00:21:27;;;;;;;;;;;;;;;;;;349830;28;1066;-63
2022/07/16 00:21:37;;;;;;;;;;;;;;;;;;349988;28;864;-63
2022/07/16 00:21:49;;;;;;;;;;;;;;;;;;349959;28;963;-63
2022/07/16 00:21:59;;;;;;;;;;;;;;;;;;349976;28;1003;-63
2022/07/16 00:22:09;;;;;;;;;;;;;;;;;;349935;28;1043;-63
2022/07/16 00:22:19;;;;;;;;;;;;;;;;;;349826;28;939;-63
2022/07/16 00:22:29;;;;;;;;;;;;;;;;;;349972;28;816;-63
2022/07/16 00:22:40;;;;;;;;;;;;;;;;;;349553;28;1379;-63
2022/07/16 00:22:50;;;;;;;;;;;;;;;;;;350405;28;807;-63
2022/07/16 00:23:00;;;;;;;;;;;;;;;;;;349955;28;962;-63
2022/07/16 00:23:10;;;;;;;;;;;;;;;;;;349876;28;987;-63
2022/07/16 00:23:20;;;;;;;;;;;;;;;;;;349953;28;848;-63
2022/07/16 00:23:31;;;;;;;;;;;;;;;;;;349962;28;827;-63
2022/07/16 00:23:41;;;;;;;;;;;;;;;;;;350001;28;856;-63
2022/07/16 00:23:51;;;;;;;;;;;;;;;;;;349971;28;852;-63
2022/07/16 00:24:01;;;;;;;;;;;;;;;;;;349939;28;904;-63
2022/07/16 00:24:12;;;;;;;;;;;;;;;;;;349998;28;916;-63
2022/07/16 00:24:23;;;;;;;;;;;;;;;;;;349906;28;770;-63
2022/07/16 00:24:33;;;;;;;;;;;;;;;;;;349981;28;928;-64
2022/07/16 00:24:43;;;;;;;;;;;;;;;;;;350030;28;879;-63
2022/07/16 00:24:54;;;;;;;;;;;;;;;;;;349920;28;979;-64
2022/07/16 00:25:04;;;;;;;;;;;;;;;;;;349937;28;999;-64
2022/07/16 00:25:14;;;;;;;;;;;;;;;;;;349986;28;797;-63
2022/07/16 00:25:25;;;;;;;;;;;;;;;;;;349952;28;857;-63
2022/07/16 00:25:35;;;;;;;;;;;;;;;;;;349946;28;963;-63
2022/07/16 00:25:45;;;;;;;;;;;;;;;;;;349983;28;774;-63
2022/07/16 00:25:55;;;;;;;;;;;;;;;;;;349958;28;900;-63
2022/07/16 00:26:06;;;;;;;;;;;;;;;;;;349961;28;916;-63
2022/07/16 00:26:16;;;;;;;;;;;;;;;;;;349922;28;982;-63
2022/07/16 00:26:26;;;;;;;;;;;;;;;;;;349896;28;967;-63
2022/07/16 00:26:37;;;;;;;;;;;;;;;;;;349970;28;853;-63
2022/07/16 00:26:47;;;;;;;;;;;;;;;;;;349952;28;987;-63
2022/07/16 00:26:57;;;;;;;;;;;;;;;;;;349923;28;924;-63
2022/07/16 00:27:07;;;;;;;;;;;;;;;;;;349915;28;1128;-63
2022/07/16 00:27:18;;;;;;;;;;;;;;;;;;349966;28;920;-63
2022/07/16 00:27:28;;;;;;;;;;;;;;;;;;350004;28;809;-63
2022/07/16 00:27:38;;;;;;;;;;;;;;;;;;349921;28;1826;-63
2022/07/16 00:27:49;;;;;;;;;;;;;;;;;;349997;28;916;-63
2022/07/16 00:27:59;;;;;;;;;;;;;;;;;;349915;28;1051;-63
2022/07/16 00:28:09;;;;;;;;;;;;;;;;;;350035;28;868;-63
2022/07/16 00:28:19;;;;;;;;;;;;;;;;;;349884;28;867;-63
2022/07/16 00:28:30;;;;;;;;;;;;;;;;;;349910;28;920;-63
2022/07/16 00:28:40;;;;;;;;;;;;;;;;;;349907;28;967;-63
2022/07/16 00:28:50;;;;;;;;;;;;;;;;;;349935;28;1038;-63
2022/07/16 00:29:01;;;;;;;;;;;;;;;;;;349925;28;983;-63
2022/07/16 00:29:11;;;;;;;;;;;;;;;;;;349916;28;1090;-63
2022/07/16 00:29:22;;;;;;;;;;;;;;;;;;349925;28;1015;-63
2022/07/16 00:29:32;;;;;;;;;;;;;;;;;;349943;28;801;-63
2022/07/16 00:29:42;;;;;;;;;;;;;;;;;;349917;28;924;-63
2022/07/16 00:29:52;;;;;;;;;;;;;;;;;;349986;28;808;-63
2022/07/16 00:30:02;;;;;;;;;;;;;;;;;;349956;28;979;-63
2022/07/16 00:30:13;;;;;;;;;;;;;;;;;;349959;28;853;-63
2022/07/16 00:30:23;;;;;;;;;;;;;;;;;;350041;28;1999;-63
2022/07/16 00:30:33;;;;;;;;;;;;;;;;;;352609;28;928;-63
2022/07/16 00:30:43;;;;;;;;;;;;;;;;;;352787;28;785;-63
2022/07/16 00:30:54;;;;;;;;;;;;;;;;;;352689;28;1893;-63
2022/07/16 00:31:04;;;;;;;;;;;;;;;;;;352774;28;876;-63
2022/07/16 00:31:14;;;;;;;;;;;;;;;;;;351633;28;1152;-64
2022/07/16 00:31:24;;;;;;;;;;;;;;;;;;351291;28;931;-63
2022/07/16 00:31:35;;;;;;;;;;;;;;;;;;351317;28;952;-63
2022/07/16 00:31:46;;;;;;;;;;;;;;;;;;351351;28;867;-63
2022/07/16 00:31:56;;;;;;;;;;;;;;;;;;351392;28;967;-63
2022/07/16 00:32:06;;;;;;;;;;;;;;;;;;351351;28;923;-63
2022/07/16 00:32:17;;;;;;;;;;;;;;;;;;351282;28;995;-63
2022/07/16 00:32:27;;;;;;;;;;;;;;;;;;351341;28;947;-63
2022/07/16 00:32:37;;;;;;;;;;;;;;;;;;351289;28;916;-63
2022/07/16 00:32:47;;;;;;;;;;;;;;;;;;351351;28;831;-63
2022/07/16 00:32:57;;;;;;;;;;;;;;;;;;351375;28;912;-64
2022/07/16 00:33:07;;;;;;;;;;;;;;;;;;351279;28;931;-63
2022/07/16 00:33:18;;;;;;;;;;;;;;;;;;351326;28;817;-63
2022/07/16 00:33:28;;;;;;;;;;;;;;;;;;351448;28;860;-63
2022/07/16 00:33:39;;;;;;;;;;;;;;;;;;351309;28;781;-63
2022/07/16 00:33:49;;;;;;;;;;;;;;;;;;351335;28;900;-63
2022/07/16 00:33:59;;;;;;;;;;;;;;;;;;351308;28;939;-63
2022/07/16 00:34:09;;;;;;;;;;;;;;;;;;351344;28;919;-63
2022/07/16 00:34:20;;;;;;;;;;;;;;;;;;351283;28;872;-63
2022/07/16 00:34:30;;;;;;;;;;;;;;;;;;351335;28;923;-63
2022/07/16 00:34:41;;;;;;;;;;;;;;;;;;351345;28;955;-63
2022/07/16 00:34:51;;;;;;;;;;;;;;;;;;351236;28;916;-63
2022/07/16 00:35:01;;;;;;;;;;;;;;;;;;351394;28;837;-63
2022/07/16 00:35:12;;;;;;;;;;;;;;;;;;350818;28;1298;-63
2022/07/16 00:35:22;;;;;;;;;;;;;;;;;;351129;28;1327;-63
2022/07/16 00:35:32;;;;;;;;;;;;;;;;;;351374;28;864;-63
2022/07/16 00:35:42;;;;;;;;;;;;;;;;;;351277;28;987;-63
2022/07/16 00:35:53;;;;;;;;;;;;;;;;;;351383;28;1046;-63
2022/07/16 00:36:03;;;;;;;;;;;;;;;;;;351355;28;975;-63
2022/07/16 00:36:13;;;;;;;;;;;;;;;;;;351346;28;919;-64
2022/07/16 00:36:24;;;;;;;;;;;;;;;;;;351310;28;885;-63
2022/07/16 00:36:34;;;;;;;;;;;;;;;;;;351285;28;936;-63
2022/07/16 00:36:45;;;;;;;;;;;;;;;;;;351321;28;845;-63
2022/07/16 00:36:55;;;;;;;;;;;;;;;;;;351326;28;829;-63
2022/07/16 00:37:05;;;;;;;;;;;;;;;;;;351363;28;916;-63
2022/07/16 00:37:16;;;;;;;;;;;;;;;;;;351362;28;928;-63
2022/07/16 00:37:26;;;;;;;;;;;;;;;;;;350285;28;1389;-63
2022/07/16 00:37:36;;;;;;;;;;;;;;;;;;351125;28;1727;-63
2022/07/16 00:37:46;;;;;;;;;;;;;;;;;;351344;28;797;-63
2022/07/16 00:37:56;;;;;;;;;;;;;;;;;;351322;28;881;-63
2022/07/16 00:38:07;;;;;;;;;;;;;;;;;;351388;28;967;-63
2022/07/16 00:38:18;;;;;;;;;;;;;;;;;;351327;28;952;-63
2022/07/16 00:38:28;;;;;;;;;;;;;;;;;;351374;28;927;-63
2022/07/16 00:38:38;;;;;;;;;;;;;;;;;;351586;28;881;-63
2022/07/16 00:38:48;;;;;;;;;;;;;;;;;;351658;28;900;-63
2022/07/16 00:38:58;;;;;;;;;;;;;;;;;;351593;28;964;-63
2022/07/16 00:39:10;;;;;;;;;;;;;;;;;;351593;28;895;-63
2022/07/16 00:39:20;;;;;;;;;;;;;;;;;;351603;28;983;-63
2022/07/16 00:39:30;;;;;;;;;;;;;;;;;;351673;28;837;-63
2022/07/16 00:39:40;;;;;;;;;;;;;;;;;;351623;28;924;-63
2022/07/16 00:39:50;;;;;;;;;;;;;;;;;;351613;28;923;-63
2022/07/16 00:40:01;;;;;;;;;;;;;;;;;;351600;28;837;-63
2022/07/16 00:40:11;;;;;;;;;;;;;;;;;;351652;28;956;-63
2022/07/16 00:40:21;;;;;;;;;;;;;;;;;;349740;28;1358;-63
2022/07/16 00:40:31;;;;;;;;;;;;;;;;;;351091;28;1704;-63
2022/07/16 00:40:42;;;;;;;;;;;;;;;;;;351594;28;1026;-63
2022/07/16 00:40:52;;;;;;;;;;;;;;;;;;351561;28;991;-63
2022/07/16 00:41:02;;;;;;;;;;;;;;;;;;351578;28;928;-63
2022/07/16 00:41:18;;;;;;;;;;;;;;;;;;351687;28;845;-63
2022/07/16 00:41:29;;;;;;;;;;;;;;;;;;351661;28;785;-63
2022/07/16 00:41:40;;;;;;;;;;;;;;;;;;351572;28;935;-63
2022/07/16 00:41:50;;;;;;;;;;;;;;;;;;351593;28;916;-63
2022/07/16 00:42:00;;;;;;;;;;;;;;;;;;351640;28;931;-63
2022/07/16 00:42:11;;;;;;;;;;;;;;;;;;351637;28;915;-63
2022/07/16 00:42:21;;;;;;;;;;;;;;;;;;351538;28;1003;-63
2022/07/16 00:42:31;;;;;;;;;;;;;;;;;;351610;28;975;-63
2022/07/16 00:42:41;;;;;;;;;;;;;;;;;;351653;28;967;-63
2022/07/16 00:42:51;;;;;;;;;;;;;;;;;;351602;28;991;-63
2022/07/16 00:43:02;;;;;;;;;;;;;;;;;;351632;28;978;-63
2022/07/16 00:43:13;;;;;;;;;;;;;;;;;;351577;28;853;-63
2022/07/16 00:43:23;;;;;;;;;;;;;;;;;;351621;28;904;-63
2022/07/16 00:43:44;;;;;;;;;;;;;;;;;;350895;28;1357;-63
2022/07/16 00:43:59;;;;;;;;;;;;;;;;;;350175;28;1097;-63
2022/07/16 00:44:10;;;;;;;;;;;;;;;;;;350273;28;2263;-63
2022/07/16 00:44:20;;;;;;;;;;;;;;;;;;352968;28;1219;-63
2022/07/16 00:44:31;;;;;;;;;;;;;;;;;;353051;28;987;-63
2022/07/16 00:44:41;;;;;;;;;;;;;;;;;;353011;28;900;-63
2022/07/16 00:44:51;;;;;;;;;;;;;;;;;;353028;28;907;-63
2022/07/16 00:45:01;;;;;;;;;;;;;;;;;;353049;28;761;-63
2022/07/16 00:45:11;;;;;;;;;;;;;;;;;;352982;28;1318;-63
2022/07/16 00:45:22;;;;;;;;;;;;;;;;;;353049;28;986;-63
2022/07/16 00:45:32;;;;;;;;;;;;;;;;;;352992;28;1022;-63
2022/07/16 00:45:42;;;;;;;;;;;;;;;;;;353046;28;1003;-63
2022/07/16 00:45:52;;;;;;;;;;;;;;;;;;353068;28;857;-63
2022/07/16 00:46:02;;;;;;;;;;;;;;;;;;353009;28;805;-63
2022/07/16 00:46:14;;;;;;;;;;;;;;;;;;353025;28;932;-63
2022/07/16 00:46:24;;;;;;;;;;;;;;;;;;353115;28;936;-63
2022/07/16 00:46:35;;;;;;;;;;;;;;;;;;353016;28;1002;-63
2022/07/16 00:46:46;;;;;;;;;;;;;;;;;;353072;27;1066;-63
2022/07/16 00:46:56;;;;;;;;;;;;;;;;;;353027;28;733;-63
2022/07/16 00:47:07;;;;;;;;;;;;;;;;;;352974;28;959;-63
2022/07/16 00:47:17;;;;;;;;;;;;;;;;;;353068;28;793;-63
2022/07/16 00:47:27;;;;;;;;;;;;;;;;;;353024;28;966;-64
2022/07/16 00:47:37;;;;;;;;;;;;;;;;;;352977;28;974;-63
2022/07/16 00:47:48;;;;;;;;;;;;;;;;;;353062;28;793;-63
2022/07/16 00:47:58;;;;;;;;;;;;;;;;;;353009;28;963;-63
2022/07/16 00:48:08;;;;;;;;;;;;;;;;;;352987;28;944;-63
2022/07/16 00:48:18;;;;;;;;;;;;;;;;;;353039;28;986;-63
2022/07/16 00:48:29;;;;;;;;;;;;;;;;;;353076;28;837;-63
2022/07/16 00:48:39;;;;;;;;;;;;;;;;;;352983;28;971;-63
2022/07/16 00:48:49;;;;;;;;;;;;;;;;;;353052;28;777;-63
2022/07/16 00:48:59;;;;;;;;;;;;;;;;;;352998;28;986;-63
2022/07/16 00:49:10;;;;;;;;;;;;;;;;;;353033;28;1026;-63
2022/07/16 00:49:21;;;;;;;;;;;;;;;;;;353012;28;912;-63
2022/07/16 00:49:31;;;;;;;;;;;;;;;;;;353035;28;1045;-63
2022/07/16 00:49:41;;;;;;;;;;;;;;;;;;352984;28;904;-64
2022/07/16 00:49:52;;;;;;;;;;;;;;;;;;353008;28;912;-63
2022/07/16 00:50:02;;;;;;;;;;;;;;;;;;353049;28;912;-63
2022/07/16 00:50:13;;;;;;;;;;;;;;;;;;352982;28;944;-63
2022/07/16 00:50:23;;;;;;;;;;;;;;;;;;353035;28;916;-63
2022/07/16 00:50:34;;;;;;;;;;;;;;;;;;353028;28;987;-63
2022/07/16 00:50:45;;;;;;;;;;;;;;;;;;352932;28;1059;-63
2022/07/16 00:50:55;;;;;;;;;;;;;;;;;;352909;28;1980;-63
2022/07/16 00:51:06;;;;;;;;;;;;;;;;;;353042;28;888;-63
2022/07/16 00:51:16;;;;;;;;;;;;;;;;;;353025;27;868;-63
2022/07/16 00:51:27;;;;;;;;;;;;;;;;;;352999;28;896;-63
2022/07/16 00:51:41;;;;;;;;;;;;;;;;;;353012;28;939;-63
2022/07/16 00:51:52;;;;;;;;;;;;;;;;;;352954;28;944;-63
2022/07/16 00:52:02;;;;;;;;;;;;;;;;;;353010;28;904;-63
2022/07/16 00:52:12;;;;;;;;;;;;;;;;;;353063;28;944;-63
2022/07/16 00:52:23;;;;;;;;;;;;;;;;;;353006;28;903;-63
2022/07/16 00:52:36;;;;;;;;;;;;;;;;;;352998;28;927;-63
2022/07/16 00:52:46;;;;;;;;;;;;;;;;;;353024;28;849;-63
2022/07/16 00:52:58;;;;;;;;;;;;;;;;;;352951;28;975;-64
2022/07/16 00:53:08;;;;;;;;;;;;;;;;;;353036;28;999;-63
2022/07/16 00:53:19;;;;;;;;;;;;;;;;;;353060;28;982;-63
2022/07/16 00:53:29;;;;;;;;;;;;;;;;;;352967;28;1010;-63
2022/07/16 00:53:39;;;;;;;;;;;;;;;;;;353042;28;805;-63
2022/07/16 00:53:50;;;;;;;;;;;;;;;;;;353015;28;999;-63
2022/07/16 00:54:00;;;;;;;;;;;;;;;;;;352968;28;919;-63
2022/07/16 00:54:11;;;;;;;;;;;;;;;;;;353059;28;800;-63
2022/07/16 00:54:21;;;;;;;;;;;;;;;;;;353032;28;916;-63
2022/07/16 00:54:32;;;;;;;;;;;;;;;;;;352989;28;849;-63
2022/07/16 00:54:42;;;;;;;;;;;;;;;;;;353008;28;923;-63
2022/07/16 00:54:52;;;;;;;;;;;;;;;;;;353025;28;982;-63
2022/07/16 00:55:03;;;;;;;;;;;;;;;;;;353034;28;823;-63
2022/07/16 00:55:13;;;;;;;;;;;;;;;;;;353009;28;911;-63
2022/07/16 00:55:24;;;;;;;;;;;;;;;;;;352974;28;879;-63
2022/07/16 00:55:34;;;;;;;;;;;;;;;;;;352914;28;983;-63
2022/07/16 00:55:44;;;;;;;;;;;;;;;;;;353072;28;927;-63
2022/07/16 00:55:54;;;;;;;;;;;;;;;;;;353040;28;943;-63
2022/07/16 00:56:12;;;;;;;;;;;;;;;;;;353003;28;979;-63
2022/07/16 00:56:23;;;;;;;;;;;;;;;;;;352986;28;908;-63
2022/07/16 00:56:33;;;;;;;;;;;;;;;;;;353039;28;924;-63
2022/07/16 00:56:43;;;;;;;;;;;;;;;;;;353023;28;955;-63
2022/07/16 00:56:53;;;;;;;;;;;;;;;;;;353044;28;789;-63
2022/07/16 00:57:04;;;;;;;;;;;;;;;;;;352988;28;967;-63
2022/07/16 00:57:14;;;;;;;;;;;;;;;;;;352996;28;896;-63
2022/07/16 00:57:24;;;;;;;;;;;;;;;;;;352996;28;905;-64
2022/07/16 00:57:35;;;;;;;;;;;;;;;;;;352991;28;868;-63
2022/07/16 00:57:45;;;;;;;;;;;;;;;;;;352982;28;955;-63
2022/07/16 00:57:56;;;;;;;;;;;;;;;;;;353012;28;908;-62
2022/07/16 00:58:06;;;;;;;;;;;;;;;;;;352978;28;880;-63
2022/07/16 00:58:16;;;;;;;;;;;;;;;;;;352238;28;1359;-63
2022/07/16 00:58:26;;;;;;;;;;;;;;;;;;351094;28;1328;-63
2022/07/16 00:58:38;;;;;;;;;;;;;;;;;;351644;28;851;-63
2022/07/16 00:58:49;;;;;;;;;;;;;;;;;;351613;28;924;-63
2022/07/16 00:58:59;;;;;;;;;;;;;;;;;;351561;28;964;-63
2022/07/16 00:59:10;;;;;;;;;;;;;;;;;;350840;28;2065;-62
2022/07/16 00:59:20;;;;;;;;;;;;;;;;;;352766;28;840;-62
2022/07/16 00:59:30;;;;;;;;;;;;;;;;;;353033;28;912;-63
2022/07/16 00:59:41;;;;;;;;;;;;;;;;;;353012;28;944;-63
2022/07/16 00:59:51;;;;;;;;;;;;;;;;;;352926;28;964;-63
2022/07/16 01:00:02;;;;;;;;;;;;;;;;;;353020;28;932;-63
2022/07/16 01:00:13;;;;;;;;;;;;;;;;;;351122;28;1288;-63
2022/07/16 01:00:23;;;;;;;;;;;;;;;;;;351621;28;1008;-63
2022/07/16 01:00:34;;;;;;;;;;;;;;;;;;351603;28;967;-63
2022/07/16 01:00:44;;;;;;;;;;;;;;;;;;351531;27;1011;-64
2022/07/16 01:00:54;;;;;;;;;;;;;;;;;;351625;28;917;-63
2022/07/16 01:01:05;;;;;;;;;;;;;;;;;;351612;27;928;-63
2022/07/16 01:01:15;;;;;;;;;;;;;;;;;;351562;28;1058;-63
2022/07/16 01:01:26;;;;;;;;;;;;;;;;;;351549;28;987;-63
2022/07/16 01:01:36;;;;;;;;;;;;;;;;;;351587;28;920;-63
2022/07/16 01:01:46;;;;;;;;;;;;;;;;;;351633;28;813;-63
2022/07/16 01:01:56;;;;;;;;;;;;;;;;;;351531;28;1096;-63
2022/07/16 01:02:07;;;;;;;;;;;;;;;;;;351522;27;1077;-63
2022/07/16 01:02:17;;;;;;;;;;;;;;;;;;351621;28;970;-63
2022/07/16 01:02:27;;;;;;;;;;;;;;;;;;351554;28;1082;-63
2022/07/16 01:02:37;;;;;;;;;;;;;;;;;;351646;28;849;-63
2022/07/16 01:02:48;;;;;;;;;;;;;;;;;;351596;27;856;-63
2022/07/16 01:02:59;;;;;;;;;;;;;;;;;;351589;28;1346;-63
2022/07/16 01:03:09;;;;;;;;;;;;;;;;;;351669;28;963;-63
2022/07/16 01:03:19;;;;;;;;;;;;;;;;;;351518;28;1459;-64
2022/07/16 01:03:30;;;;;;;;;;;;;;;;;;351637;28;908;-63
2022/07/16 01:03:40;;;;;;;;;;;;;;;;;;351592;28;852;-63
2022/07/16 01:03:51;;;;;;;;;;;;;;;;;;351669;28;808;-63
2022/07/16 01:04:04;;;;;;;;;;;;;;;;;;351535;28;793;-63
2022/07/16 01:04:15;;;;;;;;;;;;;;;;;;351558;28;979;-63
2022/07/16 01:04:25;;;;;;;;;;;;;;;;;;351613;28;1037;-63
2022/07/16 01:04:35;;;;;;;;;;;;;;;;;;351582;28;987;-63
2022/07/16 01:04:46;;;;;;;;;;;;;;;;;;351606;28;948;-63
2022/07/16 01:04:57;;;;;;;;;;;;;;;;;;351604;28;988;-63
2022/07/16 01:05:07;;;;;;;;;;;;;;;;;;351624;28;852;-63
2022/07/16 01:05:19;;;;;;;;;;;;;;;;;;351551;28;908;-63
2022/07/16 01:05:29;;;;;;;;;;;;;;;;;;351643;28;802;-63
2022/07/16 01:05:39;;;;;;;;;;;;;;;;;;351622;28;936;-63
2022/07/16 01:05:49;;;;;;;;;;;;;;;;;;351565;28;1011;-63
2022/07/16 01:06:00;;;;;;;;;;;;;;;;;;351497;28;900;-63
2022/07/16 01:06:12;;;;;;;;;;;;;;;;;;351659;28;884;-63
2022/07/16 01:06:25;;;;;;;;;;;;;;;;;;351655;28;876;-63
2022/07/16 01:06:35;;;;;;;;;;;;;;;;;;351591;28;983;-63
2022/07/16 01:06:46;;;;;;;;;;;;;;;;;;351582;28;975;-63
2022/07/16 01:06:56;;;;;;;;;;;;;;;;;;351568;28;1009;-63
2022/07/16 01:07:08;;;;;;;;;;;;;;;;;;351595;28;948;-63
2022/07/16 01:07:19;;;;;;;;;;;;;;;;;;351645;28;876;-63
2022/07/16 01:07:29;;;;;;;;;;;;;;;;;;350417;28;1429;-63
2022/07/16 01:07:40;;;;;;;;;;;;;;;;;;351607;28;994;-63
2022/07/16 01:07:50;;;;;;;;;;;;;;;;;;351645;28;928;-63
2022/07/16 01:08:02;;;;;;;;;;;;;;;;;;351592;28;909;-63
2022/07/16 01:08:12;;;;;;;;;;;;;;;;;;351491;28;1003;-63
2022/07/16 01:08:23;;;;;;;;;;;;;;;;;;351614;28;841;-63
2022/07/16 01:08:34;;;;;;;;;;;;;;;;;;351585;28;924;-63
2022/07/16 01:08:45;;;;;;;;;;;;;;;;;;351613;28;916;-63
2022/07/16 01:08:56;;;;;;;;;;;;;;;;;;351545;28;944;-63
2022/07/16 01:09:08;;;;;;;;;;;;;;;;;;351571;28;1135;-63
2022/07/16 01:09:19;;;;;;;;;;;;;;;;;;351609;28;919;-63
2022/07/16 01:09:29;;;;;;;;;;;;;;;;;;351652;28;936;-63
2022/07/16 01:09:40;;;;;;;;;;;;;;;;;;351579;28;878;-63
2022/07/16 01:09:51;;;;;;;;;;;;;;;;;;351654;28;790;-63
2022/07/16 01:10:03;;;;;;;;;;;;;;;;;;351605;27;825;-63
2022/07/16 01:10:14;;;;;;;;;;;;;;;;;;351494;28;936;-63
2022/07/16 01:10:24;;;;;;;;;;;;;;;;;;351560;28;924;-62
2022/07/16 01:10:35;;;;;;;;;;;;;;;;;;351605;28;947;-63
2022/07/16 01:10:45;;;;;;;;;;;;;;;;;;351593;28;845;-63
2022/07/16 01:10:56;;;;;;;;;;;;;;;;;;351512;28;1976;-63
2022/07/16 01:11:08;;;;;;;;;;;;;;;;;;351607;28;944;-63
2022/07/16 01:11:19;;;;;;;;;;;;;;;;;;351602;28;845;-63
2022/07/16 01:11:30;;;;;;;;;;;;;;;;;;351538;28;959;-63
2022/07/16 01:11:42;;;;;;;;;;;;;;;;;;351600;28;794;-63
2022/07/16 01:11:52;;;;;;;;;;;;;;;;;;351615;28;916;-63
2022/07/16 01:12:03;;;;;;;;;;;;;;;;;;351591;28;924;-63
2022/07/16 01:12:13;;;;;;;;;;;;;;;;;;351561;28;966;-63
2022/07/16 01:12:24;;;;;;;;;;;;;;;;;;351616;28;806;-63
2022/07/16 01:12:35;;;;;;;;;;;;;;;;;;351614;28;790;-63
2022/07/16 01:12:45;;;;;;;;;;;;;;;;;;351556;28;964;-63
2022/07/16 01:12:59;;;;;;;;;;;;;;;;;;351562;28;1054;-63
2022/07/16 01:13:10;;;;;;;;;;;;;;;;;;351610;28;911;-63
2022/07/16 01:13:20;;;;;;;;;;;;;;;;;;351612;28;956;-63
2022/07/16 01:13:31;;;;;;;;;;;;;;;;;;350950;28;1267;-63
2022/07/16 01:13:43;;;;;;;;;;;;;;;;;;350719;28;1432;-63
2022/07/16 01:13:53;;;;;;;;;;;;;;;;;;351563;28;774;-63
2022/07/16 01:14:05;;;;;;;;;;;;;;;;;;351641;28;774;-63
2022/07/16 01:14:15;;;;;;;;;;;;;;;;;;351572;28;892;-63
2022/07/16 01:14:26;;;;;;;;;;;;;;;;;;351469;28;770;-63
2022/07/16 01:14:37;;;;;;;;;;;;;;;;;;351586;28;1016;-63
2022/07/16 01:14:47;;;;;;;;;;;;;;;;;;351574;28;983;-63
2022/07/16 01:14:58;;;;;;;;;;;;;;;;;;351592;28;995;-63
2022/07/16 01:15:08;;;;;;;;;;;;;;;;;;351535;28;881;-63
2022/07/16 01:15:18;;;;;;;;;;;;;;;;;;351574;28;916;-63
2022/07/16 01:15:29;;;;;;;;;;;;;;;;;;351560;28;873;-63
2022/07/16 01:15:39;;;;;;;;;;;;;;;;;;350744;28;1369;-63
2022/07/16 01:15:49;;;;;;;;;;;;;;;;;;351555;28;916;-63
2022/07/16 01:15:59;;;;;;;;;;;;;;;;;;351584;28;932;-63
2022/07/16 01:16:10;;;;;;;;;;;;;;;;;;351532;28;853;-63
2022/07/16 01:16:20;;;;;;;;;;;;;;;;;;350860;28;1979;-63
2022/07/16 01:16:31;;;;;;;;;;;;;;;;;;352191;28;1526;-63
2022/07/16 01:16:41;;;;;;;;;;;;;;;;;;349862;28;1332;-63
2022/07/16 01:16:51;;;;;;;;;;;;;;;;;;350162;28;853;-63
2022/07/16 01:17:01;;;;;;;;;;;;;;;;;;350194;28;1010;-63
2022/07/16 01:17:12;;;;;;;;;;;;;;;;;;350171;28;822;-63
2022/07/16 01:17:22;;;;;;;;;;;;;;;;;;350189;28;987;-63
2022/07/16 01:17:32;;;;;;;;;;;;;;;;;;350183;28;916;-63
2022/07/16 01:17:42;;;;;;;;;;;;;;;;;;350162;28;920;-63
2022/07/16 01:17:53;;;;;;;;;;;;;;;;;;350178;28;924;-63
2022/07/16 01:18:03;;;;;;;;;;;;;;;;;;351629;28;1999;-63